Terminal Aerodrome Forecast
Issued by NWS Albuquerque, NM

Home | Current Version | Previous Version | Text Only | Print | Product List | Glossary On
Versions: 1 2 3 4 5 6 7 8 9 10 11 12 13
000
FTUS45 KABQ 301738
TAFABQ
TAF
KABQ 301738Z 3018/3118 22006KT P6SM FEW080 SCT150
     FM302100 22011G18KT P6SM SCT100 SCT200
     FM310000 24014KT P6SM VCSH BKN110
     FM310500 09008KT P6SM BKN140
     FM311000 03006KT P6SM SCT150=

USA.gov is the U.S. government's official web portal to all federal, state and local government web resources and services.